Aeroporto :
LOGIN :

Iscrizione | Disclaimer

   EN    FR    IT 

 










Sommario :    VFR   VFR Marginale   IFR   IFR Intensivo   IFR Molto Intensivo
Visibilità : 
Base nubi : 
>= 8 km
>= 3000ft
5 / 8 km
1000 / 3000 ft
1500m / 5 km
500 / 1000 ft
800 / 1500m
200 / 500 ft
< 800m
< 200 ft
Simboli :   Temporali  Nebbia  Neve Forte  Precipitazioni Forti  Vento > 20 kt
SIGMETs :   Varie  Temporali  Ghiacco  Turbolenza  Onda orograficha  Ceneri Vulcaniche






- Altitudine del aeroporto : 1161 ft
- Codice IATA : RJL


LELO - Logroño-Agoncillo

ULTIMO METAR :
  • 242330Z AUTO VRB02KT 6000 BKN011 05/04 Q1020

METARs OBSOLETI :
  • 242300Z AUTO VRB01KT 4700 BR OVC011 05/05 Q1020
  • 242230Z AUTO VRB01KT 4600 BR OVC010 06/05 Q1020
  • 242200Z AUTO 00000KT 4900 BR OVC009 06/05 Q1020
  • 242130Z AUTO VRB01KT 4400 BR BKN010 06/05 Q1020
  • 242100Z 26003KT 4000 BR FEW015 SCT060 06/05 Q1020

TAF TAF LELO
Valido dal 24 a 18 ore il 25 a 03 ore UTC


241700Z 2418/2503 13006KT 9999 BKN020
PROB40
TEMPO 2418/2503 1500 BR BKN008
PROB30
TEMPO 2421/2503 0200 FG VV002



MetMap, La meteo Aeronautica in un colpo d'occhio ! - Copyright ORBIFLY Dicembre 2007 - Disclaimer

ORBIFLY MET'MAP TEAM :

Programmazione e sviluppo : Alexandra Zaïnal
Concezione : Baudouin d'Aumeries
Aiuto per la programmazione : Marc-Olivier Méhu
Supporto tecnico e logistico : Manuel Goepfert
Aiuto per la traduzione : Arnaldo La Scala

Contatto : metmap@orbifly.com




FONTI E CREDITI :

   NOAA